Time;durP1;ratioP1;P1;durP2;ratioP2;P2;SDS_P1;SDS_P2;PMS_P1;PMS_P2;Temp;Humidity;BMP_temperature;BMP_pressure;BME280_temperature;BME280_humidity;BME280_pressure;Samples;Min_cycle;Max_cycle;Signal;HPM_P1;HPM_P2
2021/11/07 00:04:50;;;;;;;5.13;2.10;;;4.40;64.00;;;;;;5043237;28;20037;-81
2021/11/07 00:07:26;;;;;;;3.67;1.97;;;4.40;64.10;;;;;;5029287;28;20116;-81
2021/11/07 00:10:40;;;;;;;3.83;2.80;;;4.30;64.00;;;;;;5034397;28;20072;-81
2021/11/07 00:12:44;;;;;;;4.73;2.70;;;4.30;64.10;;;;;;5043609;28;20039;-81
2021/11/07 00:15:13;;;;;;;6.30;4.20;;;4.30;64.30;;;;;;5045024;28;20029;-81
2021/11/07 00:17:44;;;;;;;4.97;3.23;;;4.30;64.40;;;;;;5041475;28;20053;-80
2021/11/07 00:20:17;;;;;;;6.97;2.90;;;4.40;64.70;;;;;;5034249;28;20451;-81
2021/11/07 00:23:12;;;;;;;6.43;3.03;;;4.40;64.30;;;;;;5029280;28;20028;-81
2021/11/07 00:25:42;;;;;;;5.30;2.87;;;4.40;64.30;;;;;;5047385;28;20893;-81
2021/11/07 00:28:18;;;;;;;6.37;3.93;;;4.30;64.00;;;;;;5029849;28;20045;-80
2021/11/07 00:38:22;;;;;;;6.43;3.37;;;4.40;64.40;;;;;;5039736;28;20024;-81
2021/11/07 00:41:18;;;;;;;4.73;2.97;;;4.40;64.40;;;;;;5048795;28;20033;-81
2021/11/07 00:43:56;;;;;;;5.33;3.50;;;4.40;64.40;;;;;;5049412;28;20021;-81
2021/11/07 00:46:58;;;;;;;5.53;3.30;;;4.50;64.40;;;;;;5031743;28;20033;-81
2021/11/07 00:49:21;;;;;;;4.63;2.80;;;4.50;64.30;;;;;;5041149;28;20060;-81
2021/11/07 00:52:16;;;;;;;4.77;2.90;;;4.40;64.40;;;;;;5030954;28;20497;-81
2021/11/07 00:55:21;;;;;;;3.40;2.10;;;4.50;64.50;;;;;;5049774;28;20028;-81
2021/11/07 01:00:07;;;;;;;2.93;1.90;;;4.40;64.30;;;;;;5046606;28;20028;-81
2021/11/07 01:02:35;;;;;;;;;;;4.40;64.70;;;;;;5045794;28;20116;-80
2021/11/07 01:05:06;;;;;;;5.23;3.00;;;4.40;64.40;;;;;;5051150;28;19971;-81
2021/11/07 01:07:32;;;;;;;3.40;2.10;;;4.50;64.40;;;;;;5032789;28;20649;-80
2021/11/07 01:09:58;;;;;;;3.20;1.90;;;4.50;64.40;;;;;;5038799;28;20044;-81
2021/11/07 01:12:25;;;;;;;5.17;2.50;;;4.60;64.60;;;;;;5039711;28;20048;-82
2021/11/07 01:14:56;;;;;;;4.13;2.70;;;4.50;64.40;;;;;;5048705;28;20419;-80
2021/11/07 01:17:22;;;;;;;4.67;2.33;;;4.50;64.40;;;;;;5043404;28;20036;-80
2021/11/07 01:19:52;;;;;;;4.53;2.47;;;4.40;64.30;;;;;;5047949;28;20021;-81
2021/11/07 01:22:22;;;;;;;4.60;2.30;;;4.30;64.30;;;;;;5030441;28;20057;-80
2021/11/07 01:24:58;;;;;;;5.13;2.57;;;4.40;64.40;;;;;;5027365;28;20041;-80
2021/11/07 01:27:46;;;;;;;4.10;1.90;;;4.40;64.30;;;;;;5046142;28;20107;-81
2021/11/07 01:30:20;;;;;;;5.07;2.27;;;4.30;64.40;;;;;;5043769;28;20041;-80
2021/11/07 01:32:51;;;;;;;6.00;2.13;;;4.40;64.60;;;;;;5054850;28;20101;-80
2021/11/07 01:41:04;;;;;;;2.70;1.60;;;4.30;64.10;;;;;;4966713;28;20570;-80
2021/11/07 01:43:30;;;;;;;3.33;1.93;;;4.30;64.30;;;;;;4967026;28;20043;-81
2021/11/07 01:48:31;;;;;;;2.22;1.50;;;4.30;64.20;;;;;;5044336;28;20037;-80
2021/11/07 01:50:58;;;;;;;5.83;1.93;;;4.30;64.20;;;;;;5030564;28;20037;-80
2021/11/07 01:53:35;;;;;;;4.23;2.00;;;4.40;64.40;;;;;;5071471;28;20611;-80
2021/11/07 01:56:05;;;;;;;3.03;1.93;;;4.40;64.40;;;;;;5036747;28;20025;-80
2021/11/07 01:58:32;;;;;;;3.00;1.83;;;4.30;64.40;;;;;;5025773;28;20032;-80
2021/11/07 02:00:59;;;;;;;4.93;2.27;;;4.20;64.20;;;;;;5033805;28;20029;-80
2021/11/07 02:03:25;;;;;;;5.43;2.87;;;4.20;64.40;;;;;;5032675;28;20060;-80
2021/11/07 02:05:52;;;;;;;4.60;2.53;;;4.20;64.20;;;;;;5034389;28;20172;-80
2021/11/07 02:08:19;;;;;;;3.17;2.10;;;4.20;64.00;;;;;;5050174;28;20054;-80
2021/11/07 02:10:45;;;;;;;4.83;2.13;;;4.20;64.10;;;;;;5033273;28;20032;-80
2021/11/07 02:13:11;;;;;;;3.00;1.60;;;4.10;64.10;;;;;;5031774;28;20072;-80
2021/11/07 02:15:37;;;;;;;3.60;1.50;;;4.20;64.50;;;;;;5050067;28;20373;-80
2021/11/07 02:18:03;;;;;;;3.93;1.50;;;4.10;64.40;;;;;;5032718;28;20025;-80
2021/11/07 02:20:30;;;;;;;4.23;0.90;;;4.10;64.40;;;;;;5049897;28;20029;-80
2021/11/07 02:22:58;;;;;;;4.47;2.23;;;4.10;64.70;;;;;;5029805;28;20437;-80
2021/11/07 02:25:25;;;;;;;3.70;1.80;;;4.10;64.40;;;;;;5051725;28;20380;-80
2021/11/07 02:27:51;;;;;;;2.47;1.27;;;4.00;64.80;;;;;;5048842;28;20607;-80
2021/11/07 02:30:17;;;;;;;2.60;1.20;;;4.00;65.00;;;;;;5047811;28;20024;-80
2021/11/07 02:32:45;;;;;;;1.90;0.83;;;4.10;64.80;;;;;;5053899;28;20444;-80
2021/11/07 02:35:11;;;;;;;1.20;0.80;;;4.10;64.80;;;;;;5034731;28;20048;-80
2021/11/07 02:37:37;;;;;;;3.43;1.30;;;4.10;64.70;;;;;;5048459;28;20028;-80
2021/11/07 02:40:08;;;;;;;1.60;0.83;;;4.00;64.70;;;;;;5052889;28;21052;-80
2021/11/07 02:42:35;;;;;;;2.00;0.93;;;4.00;64.70;;;;;;5046573;28;20086;-80
2021/11/07 02:45:02;;;;;;;1.63;0.87;;;4.10;64.40;;;;;;5050880;28;20025;-80
2021/11/07 02:47:28;;;;;;;1.63;0.90;;;4.10;64.50;;;;;;5036679;28;20039;-80
2021/11/07 02:49:54;;;;;;;2.37;1.30;;;4.10;64.80;;;;;;5037185;28;20021;-80
2021/11/07 02:52:20;;;;;;;3.27;2.27;;;4.20;64.80;;;;;;5049254;28;20104;-80
2021/11/07 02:54:46;;;;;;;4.97;2.43;;;4.10;64.60;;;;;;5030112;28;20121;-80
2021/11/07 02:57:17;;;;;;;5.80;3.07;;;4.00;65.10;;;;;;5034901;28;20025;-80
2021/11/07 02:59:43;;;;;;;7.00;3.27;;;3.90;65.10;;;;;;5048287;28;20030;-80
2021/11/07 03:02:11;;;;;;;3.33;2.50;;;3.90;64.80;;;;;;5056089;28;20025;-80
2021/11/07 03:04:38;;;;;;;2.97;1.33;;;3.90;64.90;;;;;;5035303;28;20025;-80
2021/11/07 03:07:04;;;;;;;2.43;1.20;;;3.90;64.80;;;;;;5034230;28;20048;-80
2021/11/07 03:09:33;;;;;;;3.90;1.57;;;3.90;64.80;;;;;;5031484;28;20032;-80
2021/11/07 03:11:59;;;;;;;6.33;1.70;;;3.90;64.70;;;;;;5050736;28;20025;-80
2021/11/07 03:14:34;;;;;;;4.00;2.03;;;4.00;64.70;;;;;;5036966;28;20372;-80
2021/11/07 03:17:02;;;;;;;2.87;1.50;;;3.90;64.60;;;;;;5032618;28;20047;-80
2021/11/07 03:19:29;;;;;;;4.37;2.20;;;3.90;64.70;;;;;;5034188;28;20364;-81
2021/11/07 03:21:58;;;;;;;4.03;2.20;;;3.90;64.60;;;;;;5033304;28;20399;-80
2021/11/07 03:24:24;;;;;;;4.13;2.90;;;3.90;64.60;;;;;;5039416;28;20052;-80
2021/11/07 03:26:51;;;;;;;5.97;3.73;;;3.90;64.50;;;;;;5032628;28;20036;-80
2021/11/07 03:29:17;;;;;;;6.30;3.33;;;3.80;64.40;;;;;;5054566;28;20017;-80
2021/11/07 03:34:29;;;;;;;8.07;3.33;;;3.80;65.00;;;;;;5040939;28;20580;-80
2021/11/07 03:36:58;;;;;;;4.43;2.93;;;3.80;64.80;;;;;;5038412;28;20031;-80
2021/11/07 03:39:28;;;;;;;6.67;3.43;;;3.80;64.90;;;;;;5050043;28;20037;-80
2021/11/07 03:41:54;;;;;;;5.80;3.40;;;3.80;65.20;;;;;;5056349;28;20507;-81
2021/11/07 03:44:21;;;;;;;7.53;3.57;;;3.90;65.30;;;;;;5034285;28;20029;-81
2021/11/07 03:46:49;;;;;;;4.40;3.20;;;4.10;65.30;;;;;;5044229;28;20628;-80
2021/11/07 03:49:16;;;;;;;7.10;3.90;;;4.10;64.80;;;;;;5051449;28;20025;-81
2021/11/07 03:51:44;;;;;;;6.13;3.13;;;4.00;64.60;;;;;;5024653;28;20037;-81
2021/11/07 03:54:12;;;;;;;6.27;3.77;;;3.90;64.80;;;;;;5037828;28;20939;-81
2021/11/07 03:56:38;;;;;;;8.27;3.73;;;3.90;64.70;;;;;;5064977;28;20119;-81
2021/11/07 03:59:04;;;;;;;7.80;3.67;;;3.80;64.80;;;;;;5038966;28;20020;-81
2021/11/07 04:01:35;;;;;;;7.03;4.40;;;3.70;64.90;;;;;;5033598;28;20032;-81
2021/11/07 04:04:01;;;;;;;7.67;3.37;;;3.70;65.00;;;;;;5050898;28;20625;-81
2021/11/07 04:06:27;;;;;;;5.27;3.03;;;3.70;65.10;;;;;;5055406;28;20040;-81
2021/11/07 04:08:53;;;;;;;5.80;3.10;;;3.80;65.20;;;;;;5040993;28;20415;-81
2021/11/07 04:11:19;;;;;;;7.17;5.50;;;3.80;65.00;;;;;;5040348;28;20036;-82
2021/11/07 04:13:47;;;;;;;6.43;2.97;;;3.70;65.40;;;;;;5050622;28;20032;-82
2021/11/07 04:16:14;;;;;;;4.30;2.70;;;3.80;65.90;;;;;;5034853;28;20147;-81
2021/11/07 04:18:42;;;;;;;49.83;35.60;;;3.80;65.50;;;;;;5047780;28;20021;-80
2021/11/07 04:21:08;;;;;;;5.47;2.70;;;3.80;65.60;;;;;;5056276;28;20040;-81
2021/11/07 04:23:35;;;;;;;6.90;3.00;;;3.70;65.40;;;;;;5046597;28;20025;-81
2021/11/07 04:26:02;;;;;;;6.53;2.57;;;3.50;65.70;;;;;;5043416;28;20028;-81
2021/11/07 04:28:28;;;;;;;6.83;2.73;;;3.40;65.90;;;;;;5055295;28;20106;-81
2021/11/07 04:30:54;;;;;;;4.00;2.33;;;3.50;66.30;;;;;;5030099;28;20037;-80
2021/11/07 04:33:21;;;;;;;5.23;2.63;;;3.50;66.10;;;;;;5047591;28;20021;-81
2021/11/07 04:35:47;;;;;;;3.57;2.20;;;3.50;66.00;;;;;;5063124;28;21022;-80
2021/11/07 04:38:14;;;;;;;8.03;5.90;;;3.50;65.50;;;;;;5033430;28;20112;-81
2021/11/07 04:40:39;;;;;;;4.17;2.70;;;3.50;66.30;;;;;;5042235;28;20078;-80
2021/11/07 04:43:05;;;;;;;5.67;2.63;;;3.60;66.60;;;;;;5035061;28;20028;-80
2021/11/07 04:45:31;;;;;;;4.33;2.30;;;3.60;66.10;;;;;;5053900;28;20392;-81
2021/11/07 04:47:57;;;;;;;4.27;2.30;;;3.50;66.00;;;;;;5038964;28;20029;-81
2021/11/07 04:50:23;;;;;;;5.83;2.63;;;3.50;66.20;;;;;;5035656;28;20028;-80
2021/11/07 04:52:48;;;;;;;5.60;2.63;;;3.60;66.30;;;;;;5041586;28;20017;-81
2021/11/07 04:55:15;;;;;;;6.63;4.13;;;3.70;66.70;;;;;;5029676;28;20017;-81
2021/11/07 04:57:42;;;;;;;5.93;3.77;;;3.70;66.10;;;;;;5038365;28;20052;-80
2021/11/07 05:00:17;;;;;;;5.60;3.20;;;3.60;65.70;;;;;;5029185;28;20028;-81
2021/11/07 05:02:44;;;;;;;8.63;3.57;;;3.50;66.30;;;;;;5019388;28;20058;-81
2021/11/07 05:05:10;;;;;;;5.37;3.30;;;3.40;66.10;;;;;;5037084;28;20137;-81
2021/11/07 05:07:36;;;;;;;6.27;3.00;;;3.40;66.40;;;;;;5047128;28;20048;-81
2021/11/07 05:10:02;;;;;;;5.23;2.73;;;3.40;66.90;;;;;;5046717;28;20022;-81
2021/11/07 05:12:29;;;;;;;5.37;2.40;;;3.50;66.60;;;;;;5043959;28;20103;-81
2021/11/07 05:14:55;;;;;;;3.87;2.50;;;3.50;66.50;;;;;;5034273;28;20418;-81
2021/11/07 05:17:21;;;;;;;3.97;2.30;;;3.50;66.70;;;;;;5052251;28;20036;-81
2021/11/07 05:19:47;;;;;;;5.17;1.90;;;3.60;67.20;;;;;;5036180;28;20566;-81
2021/11/07 05:22:13;;;;;;;3.40;2.30;;;3.50;66.40;;;;;;5057765;28;20086;-80
2021/11/07 05:24:39;;;;;;;4.50;1.80;;;3.40;66.90;;;;;;5048128;28;20125;-81
2021/11/07 05:27:04;;;;;;;5.73;2.20;;;3.60;67.30;;;;;;5033662;28;20121;-81
2021/11/07 05:29:30;;;;;;;3.60;1.83;;;3.70;67.00;;;;;;5049060;28;20032;-81
2021/11/07 05:31:56;;;;;;;5.27;2.63;;;3.80;67.40;;;;;;5026748;28;20049;-82
2021/11/07 05:34:23;;;;;;;5.40;2.73;;;3.90;66.40;;;;;;5034251;28;20017;-81
2021/11/07 05:36:50;;;;;;;4.87;2.60;;;3.80;65.90;;;;;;5037375;28;20026;-81
2021/11/07 05:39:17;;;;;;;9.20;4.50;;;3.70;65.90;;;;;;5036913;28;20025;-80
2021/11/07 05:41:43;;;;;;;6.13;3.40;;;3.60;65.80;;;;;;5046452;28;20016;-81
2021/11/07 05:44:09;;;;;;;5.70;2.87;;;3.60;65.90;;;;;;5047156;28;20017;-81
2021/11/07 05:46:35;;;;;;;5.60;2.73;;;3.60;66.40;;;;;;5037626;28;20032;-81
2021/11/07 05:49:00;;;;;;;4.63;2.57;;;3.70;66.10;;;;;;5030644;28;20053;-81
2021/11/07 05:51:26;;;;;;;7.40;3.20;;;3.90;66.40;;;;;;5035187;28;20056;-81
2021/11/07 05:53:52;;;;;;;5.17;2.80;;;4.10;65.70;;;;;;5051902;28;20017;-80
2021/11/07 05:56:18;;;;;;;6.40;2.93;;;4.00;65.30;;;;;;5065008;28;20033;-81
2021/11/07 05:58:44;;;;;;;4.73;2.23;;;3.90;65.30;;;;;;5031255;28;20059;-81
2021/11/07 06:01:09;;;;;;;4.67;2.80;;;3.80;65.40;;;;;;5028022;28;20063;-81
2021/11/07 06:03:36;;;;;;;5.97;3.10;;;3.80;65.80;;;;;;5051404;28;20027;-81
2021/11/07 06:06:02;;;;;;;6.43;2.90;;;3.80;65.90;;;;;;5043692;28;20056;-81
2021/11/07 06:08:28;;;;;;;5.20;3.40;;;4.00;66.00;;;;;;5042126;28;20056;-81
2021/11/07 06:10:54;;;;;;;6.47;3.00;;;3.90;65.10;;;;;;5050596;28;20107;-81
2021/11/07 06:13:19;;;;;;;6.73;3.97;;;3.80;65.70;;;;;;5041208;28;20104;-81
2021/11/07 06:15:46;;;;;;;9.77;4.23;;;3.80;65.70;;;;;;5046458;28;20115;-81
2021/11/07 06:18:11;;;;;;;7.93;4.13;;;3.80;65.20;;;;;;5056878;28;20070;-81
2021/11/07 06:20:37;;;;;;;5.83;3.37;;;3.60;65.10;;;;;;5044077;28;20037;-80
2021/11/07 06:23:05;;;;;;;5.40;3.30;;;3.60;66.20;;;;;;5036114;28;20472;-81
2021/11/07 06:25:31;;;;;;;6.63;3.50;;;3.60;66.30;;;;;;5048233;28;20029;-81
2021/11/07 06:27:57;;;;;;;5.70;3.03;;;3.70;66.20;;;;;;5032527;28;20049;-81
2021/11/07 06:30:23;;;;;;;6.67;3.63;;;3.80;65.70;;;;;;5056190;28;20044;-81
2021/11/07 06:32:49;;;;;;;4.93;3.30;;;3.80;65.40;;;;;;5040600;28;20041;-81
2021/11/07 06:35:15;;;;;;;7.37;4.17;;;4.00;65.90;;;;;;5031615;28;20040;-81
2021/11/07 06:37:42;;;;;;;5.13;3.13;;;4.00;65.50;;;;;;5038115;28;20020;-81
2021/11/07 06:40:10;;;;;;;5.90;3.03;;;4.00;65.00;;;;;;5030771;28;20994;-80
2021/11/07 06:42:36;;;;;;;6.93;3.47;;;3.90;65.10;;;;;;5037152;28;20033;-80
2021/11/07 06:45:03;;;;;;;5.30;3.03;;;4.00;65.00;;;;;;5066691;28;20434;-81
2021/11/07 06:47:29;;;;;;;6.83;3.60;;;3.90;64.90;;;;;;5055751;28;20029;-80
2021/11/07 06:49:55;;;;;;;8.23;3.57;;;3.90;64.80;;;;;;5037716;28;20036;-80
2021/11/07 06:52:21;;;;;;;5.70;3.33;;;3.90;65.20;;;;;;5036637;28;20536;-80
2021/11/07 06:54:48;;;;;;;9.83;4.47;;;4.00;65.40;;;;;;5037049;28;20036;-81
2021/11/07 06:57:14;;;;;;;8.67;3.50;;;4.00;64.40;;;;;;5034639;28;20112;-81
2021/11/07 06:59:40;;;;;;;6.23;3.50;;;3.90;65.30;;;;;;5036479;28;20059;-81
2021/11/07 07:02:06;;;;;;;7.27;3.80;;;3.80;65.50;;;;;;5037422;28;20026;-80
2021/11/07 07:04:32;;;;;;;6.30;3.20;;;3.90;65.60;;;;;;5036766;28;20021;-81
2021/11/07 07:06:58;;;;;;;6.97;3.70;;;4.00;65.40;;;;;;5058050;28;20024;-80
2021/11/07 07:09:29;;;;;;;10.07;3.20;;;3.90;65.10;;;;;;5043789;28;20108;-80
2021/11/07 07:12:06;;;;;;;6.70;2.73;;;3.80;64.50;;;;;;5064196;28;20022;-80
2021/11/07 07:15:09;;;;;;;6.10;3.67;;;3.70;65.00;;;;;;5035149;28;20039;-80
2021/11/07 07:35:48;;;;;;;8.23;4.40;;;4.20;65.20;;;;;;5047642;28;20094;-79
2021/11/07 07:38:14;;;;;;;8.00;4.90;;;4.30;65.50;;;;;;5031477;28;20120;-79
2021/11/07 07:40:40;;;;;;;7.70;4.17;;;4.50;65.00;;;;;;5031680;28;20115;-79
2021/11/07 07:43:06;;;;;;;5.53;3.27;;;4.60;65.70;;;;;;5043985;28;20088;-80
2021/11/07 07:45:32;;;;;;;6.70;3.90;;;4.90;64.90;;;;;;5028574;28;20029;-79
2021/11/07 07:47:59;;;;;;;5.87;3.57;;;4.90;64.00;;;;;;5031006;28;21555;-80
2021/11/07 07:50:25;;;;;;;5.80;3.20;;;4.60;63.50;;;;;;5029422;28;20034;-79
2021/11/07 07:52:52;;;;;;;5.83;2.97;;;4.50;64.20;;;;;;5025946;28;20057;-79
2021/11/07 07:55:18;;;;;;;5.53;3.70;;;4.50;64.10;;;;;;5064820;28;20029;-79
2021/11/07 07:57:47;;;;;;;10.07;6.57;;;4.60;64.40;;;;;;5038719;28;20028;-79
2021/11/07 08:00:15;;;;;;;6.30;4.00;;;4.80;64.30;;;;;;5023423;28;20486;-79
2021/11/07 08:02:42;;;;;;;13.30;6.40;;;4.70;63.80;;;;;;5036222;28;20025;-79
2021/11/07 08:05:10;;;;;;;9.30;4.20;;;4.70;64.90;;;;;;5029440;28;20071;-79
2021/11/07 08:07:35;;;;;;;12.40;6.87;;;4.90;64.90;;;;;;5055754;28;20035;-79
2021/11/07 08:10:02;;;;;;;9.83;5.73;;;4.90;64.50;;;;;;5032706;28;20025;-80
2021/11/07 08:12:28;;;;;;;5.77;2.90;;;4.90;64.00;;;;;;5025265;28;20037;-80
2021/11/07 08:14:54;;;;;;;6.53;3.17;;;4.70;63.50;;;;;;5045794;28;20013;-80
2021/11/07 08:17:20;;;;;;;9.10;3.53;;;4.70;64.10;;;;;;5054129;28;20120;-79
2021/11/07 08:19:47;;;;;;;8.83;3.70;;;4.80;64.20;;;;;;5032055;28;20132;-79
2021/11/07 08:22:13;;;;;;;5.17;2.83;;;4.90;64.00;;;;;;5047007;28;20078;-80
2021/11/07 08:24:40;;;;;;;5.50;3.20;;;5.00;63.90;;;;;;5047861;28;20468;-80
2021/11/07 08:27:06;;;;;;;7.00;3.73;;;5.10;63.50;;;;;;5031655;28;20045;-80
2021/11/07 08:29:33;;;;;;;7.33;3.67;;;5.20;63.60;;;;;;5047757;28;20487;-80
2021/11/07 08:31:59;;;;;;;16.27;12.30;;;5.30;63.20;;;;;;5044211;28;20025;-80
2021/11/07 08:34:28;;;;;;;6.57;2.63;;;5.40;63.00;;;;;;5046685;28;20032;-80
2021/11/07 08:37:04;;;;;;;10.90;7.90;;;5.50;63.10;;;;;;5027156;28;20341;-80
2021/11/07 08:39:49;;;;;;;4.30;2.77;;;5.90;63.50;;;;;;5029878;28;20526;-80
2021/11/07 08:42:19;;;;;;;2.63;2.07;;;6.50;63.40;;;;;;5033327;28;20480;-80
2021/11/07 09:01:45;;;;;;;6.83;3.30;;;7.10;58.40;;;;;;5048819;28;20040;-80
2021/11/07 09:07:37;;;;;;;5.63;3.63;;;7.10;58.60;;;;;;5048195;28;20037;-80
2021/11/07 09:09:37;;;;;;;5.90;3.60;;;7.10;58.50;;;;;;5032612;28;20345;-81
2021/11/07 09:12:04;;;;;;;4.73;3.40;;;7.20;58.60;;;;;;5040327;28;20045;-80
2021/11/07 09:14:37;;;;;;;5.17;3.40;;;7.50;58.80;;;;;;5045050;28;20472;-80
2021/11/07 09:17:07;;;;;;;6.37;2.90;;;7.70;58.50;;;;;;5039876;28;20020;-80
2021/11/07 09:19:36;;;;;;;5.63;3.30;;;8.00;58.30;;;;;;5032064;28;20032;-81
2021/11/07 09:22:07;;;;;;;7.57;4.30;;;8.40;57.70;;;;;;5035740;28;20033;-81
2021/11/07 09:24:55;;;;;;;5.30;3.10;;;8.90;57.70;;;;;;5027001;28;20488;-80
2021/11/07 09:27:26;;;;;;;3.17;2.17;;;9.50;57.30;;;;;;5047462;28;20047;-81
2021/11/07 09:32:47;;;;;;;4.70;2.70;;;10.20;55.30;;;;;;5050764;28;20029;-81
2021/11/07 09:37:51;;;;;;;4.65;1.52;;;10.50;54.50;;;;;;5045292;28;20032;-81
2021/11/07 09:40:18;;;;;;;2.57;1.67;;;10.50;53.60;;;;;;5027970;28;20040;-81
2021/11/07 09:48:10;;;;;;;5.13;2.10;;;10.70;51.70;;;;;;5042721;28;20104;-81
2021/11/07 09:50:37;;;;;;;4.47;2.70;;;10.80;50.40;;;;;;5054731;28;20033;-81
2021/11/07 09:53:03;;;;;;;3.60;1.77;;;10.80;50.10;;;;;;5027347;28;20520;-81
2021/11/07 09:55:31;;;;;;;2.60;1.60;;;11.00;49.10;;;;;;5031273;28;20040;-81
2021/11/07 09:57:59;;;;;;;2.40;1.70;;;11.00;48.40;;;;;;5031465;28;20036;-81
2021/11/07 10:00:34;;;;;;;3.90;2.37;;;11.00;48.10;;;;;;5048462;28;20036;-81
2021/11/07 10:03:00;;;;;;;5.93;1.60;;;11.30;48.20;;;;;;5029952;28;20067;-81
2021/11/07 10:05:27;;;;;;;2.20;1.30;;;11.50;47.60;;;;;;5047062;28;20048;-81
2021/11/07 10:08:03;;;;;;;3.37;1.47;;;11.60;46.90;;;;;;5030910;28;20093;-81
2021/11/07 10:10:34;;;;;;;4.23;1.70;;;11.50;46.60;;;;;;5043236;28;20495;-81
2021/11/07 10:13:24;;;;;;;2.90;1.13;;;11.50;46.20;;;;;;5037528;28;20032;-82
2021/11/07 10:16:09;;;;;;;4.07;1.77;;;11.40;45.60;;;;;;5029722;28;20021;-81
2021/11/07 10:18:45;;;;;;;4.03;1.63;;;11.60;45.90;;;;;;5038860;28;20057;-80
2021/11/07 10:21:26;;;;;;;3.73;1.60;;;11.80;45.80;;;;;;5036988;28;20033;-81
2021/11/07 10:24:12;;;;;;;3.13;1.80;;;12.10;45.00;;;;;;5042460;28;20126;-81
2021/11/07 10:26:41;;;;;;;2.80;1.60;;;12.20;45.20;;;;;;5033586;28;20057;-80
2021/11/07 10:29:19;;;;;;;5.67;1.60;;;12.30;44.70;;;;;;5036234;28;20029;-81
2021/11/07 10:31:54;;;;;;;3.53;1.57;;;12.20;44.50;;;;;;5024383;28;20079;-81
2021/11/07 10:45:39;;;;;;;4.17;1.83;;;13.00;43.70;;;;;;5048532;28;20029;-81
2021/11/07 10:53:48;;;;;;;2.73;1.80;;;13.20;42.90;;;;;;5050734;28;20445;-81
2021/11/07 10:56:14;;;;;;;5.13;1.37;;;13.20;42.90;;;;;;5049865;28;20033;-81
2021/11/07 10:58:48;;;;;;;3.40;1.93;;;13.30;42.80;;;;;;5048425;28;20047;-81
2021/11/07 11:01:21;;;;;;;2.53;1.60;;;13.50;42.40;;;;;;5035225;28;20509;-81
2021/11/07 11:03:54;;;;;;;3.27;1.77;;;13.40;42.10;;;;;;5045821;28;20061;-81
2021/11/07 11:06:20;;;;;;;1.93;1.37;;;13.30;42.20;;;;;;5048451;28;20107;-81
2021/11/07 11:08:55;;;;;;;4.47;1.47;;;13.20;42.30;;;;;;5047083;28;20033;-81
2021/11/07 11:11:46;;;;;;;4.23;1.50;;;13.20;42.00;;;;;;5036770;28;20104;-81
2021/11/07 11:17:33;;;;;;;3.13;1.40;;;13.20;42.30;;;;;;5047016;28;20028;-81
2021/11/07 11:20:04;;;;;;;9.07;1.77;;;13.20;42.30;;;;;;5056217;28;20032;-81
2021/11/07 11:35:43;;;;;;;4.13;1.77;;;12.90;42.90;;;;;;5049756;28;20064;-81
2021/11/07 11:43:19;;;;;;;3.00;1.90;;;13.10;42.70;;;;;;5058137;28;20027;-81
2021/11/07 11:45:53;;;;;;;3.77;1.50;;;13.10;42.50;;;;;;5036994;28;20675;-81
2021/11/07 11:51:21;;;;;;;4.70;1.80;;;13.10;41.90;;;;;;5043953;28;20033;-81
2021/11/07 11:57:32;;;;;;;1.93;1.20;;;12.90;42.30;;;;;;5060092;28;20900;-81
2021/11/07 12:00:44;;;;;;;12.83;3.37;;;12.80;42.00;;;;;;5046576;28;20029;-81
2021/11/07 12:16:58;;;;;;;3.13;1.40;;;12.30;42.50;;;;;;4972958;28;20054;-81
2021/11/07 12:19:41;;;;;;;10.77;3.37;;;12.30;43.10;;;;;;4952035;28;20529;-80
2021/11/07 12:22:11;;;;;;;7.23;2.40;;;12.30;42.10;;;;;;4970497;28;20117;-80
2021/11/07 12:25:02;;;;;;;24.87;9.93;;;12.30;41.90;;;;;;5032070;28;20036;-80
2021/11/07 12:27:55;;;;;;;12.73;4.37;;;12.30;41.80;;;;;;5055850;28;20045;-80
2021/11/07 12:30:30;;;;;;;7.07;3.43;;;12.40;42.00;;;;;;5037609;28;20032;-80
2021/11/07 12:33:04;;;;;;;5.33;2.30;;;12.50;42.00;;;;;;5033235;28;20017;-80
2021/11/07 12:36:08;;;;;;;2.30;1.30;;;12.40;41.90;;;;;;5050585;28;20034;-80
2021/11/07 12:41:24;;;;;;;12.93;5.10;;;12.60;42.00;;;;;;5039306;28;20561;-81
2021/11/07 12:44:03;;;;;;;3.47;1.70;;;12.60;41.90;;;;;;5052598;28;20025;-80
2021/11/07 12:46:56;;;;;;;8.20;3.37;;;12.60;41.70;;;;;;5017313;28;20040;-80
2021/11/07 12:49:24;;;;;;;;;;;12.60;41.90;;;;;;5045786;28;20036;-80
2021/11/07 12:52:12;;;;;;;2.83;1.27;;;12.70;42.20;;;;;;5034199;28;19928;-80
2021/11/07 12:54:41;;;;;;;5.80;2.27;;;12.70;41.60;;;;;;5040455;28;20029;-80
2021/11/07 12:57:27;;;;;;;2.80;1.43;;;12.60;41.90;;;;;;5036638;28;20499;-80
2021/11/07 12:59:57;;;;;;;2.67;1.80;;;12.60;41.80;;;;;;5050635;28;20044;-80
2021/11/07 13:02:30;;;;;;;3.30;1.80;;;12.60;42.00;;;;;;5033014;28;20025;-80
2021/11/07 13:05:04;;;;;;;2.03;1.23;;;12.60;42.30;;;;;;5055321;28;20025;-80
2021/11/07 13:07:55;;;;;;;3.17;1.60;;;12.60;42.10;;;;;;5012375;28;20025;-81
2021/11/07 13:11:15;;;;;;;1.97;1.30;;;12.60;42.30;;;;;;5044164;28;20026;-80
2021/11/07 13:16:34;;;;;;;3.57;1.50;;;12.50;42.30;;;;;;5052737;28;20029;-81
2021/11/07 13:19:17;;;;;;;1.70;1.30;;;12.40;42.30;;;;;;5047601;28;20020;-81
2021/11/07 13:27:30;;;;;;;4.90;1.30;;;12.30;43.00;;;;;;5045359;28;20041;-81
2021/11/07 13:30:16;;;;;;;5.33;1.83;;;12.40;43.20;;;;;;5044976;28;20025;-81
2021/11/07 13:32:42;;;;;;;3.43;1.40;;;12.40;43.30;;;;;;5048674;28;20035;-81
2021/11/07 13:35:18;;;;;;;2.77;1.50;;;12.40;43.40;;;;;;5017661;28;20018;-81
2021/11/07 13:37:53;;;;;;;4.13;1.40;;;12.50;43.80;;;;;;5030102;28;20125;-81
2021/11/07 13:40:30;;;;;;;2.30;1.37;;;12.40;43.80;;;;;;5028294;28;20408;-80
2021/11/07 13:43:29;;;;;;;2.37;1.50;;;12.50;44.10;;;;;;5032810;28;20037;-81
2021/11/07 13:45:56;;;;;;;3.40;1.80;;;12.50;44.00;;;;;;5040410;28;20052;-80
2021/11/07 13:48:29;;;;;;;3.57;2.07;;;12.60;43.90;;;;;;5038104;28;20521;-80
2021/11/07 13:50:55;;;;;;;3.30;1.60;;;12.60;43.90;;;;;;5048932;28;20033;-81
2021/11/07 13:53:24;;;;;;;2.37;1.53;;;12.60;44.20;;;;;;5055697;28;20060;-80
2021/11/07 13:55:52;;;;;;;2.37;1.37;;;12.60;44.30;;;;;;5043536;28;20120;-80
2021/11/07 13:58:21;;;;;;;5.40;1.93;;;12.60;44.30;;;;;;5040843;28;20385;-80
2021/11/07 14:00:48;;;;;;;2.43;1.50;;;12.60;44.40;;;;;;5039093;28;20021;-81
2021/11/07 14:03:17;;;;;;;4.53;1.90;;;12.60;44.50;;;;;;5036104;28;20504;-80
2021/11/07 14:06:05;;;;;;;4.83;2.50;;;12.50;44.40;;;;;;5054135;28;20022;-81
2021/11/07 14:08:44;;;;;;;5.50;2.27;;;12.50;44.60;;;;;;5041136;28;20025;-80
2021/11/07 14:11:11;;;;;;;3.60;1.10;;;12.50;44.60;;;;;;5035438;28;20028;-81
2021/11/07 14:13:59;;;;;;;3.23;1.57;;;12.50;44.70;;;;;;5057297;28;20082;-81
2021/11/07 14:16:46;;;;;;;3.33;2.20;;;12.40;45.10;;;;;;5047133;28;20074;-80
2021/11/07 14:19:13;;;;;;;7.40;2.50;;;12.40;45.20;;;;;;5046314;28;20056;-80
2021/11/07 14:21:44;;;;;;;6.70;2.10;;;12.40;45.40;;;;;;5051776;28;20163;-80
2021/11/07 14:26:54;;;;;;;6.77;2.27;;;12.30;45.40;;;;;;5051682;28;20044;-81
2021/11/07 14:32:04;;;;;;;4.13;2.17;;;12.20;45.50;;;;;;5046224;28;20025;-81
2021/11/07 14:37:31;;;;;;;9.45;5.07;;;12.10;46.00;;;;;;5048734;28;20049;-80
2021/11/07 14:40:05;;;;;;;9.63;5.73;;;11.90;46.50;;;;;;5051648;28;20044;-81
2021/11/07 14:45:19;;;;;;;9.43;5.10;;;11.90;47.00;;;;;;5055473;28;21337;-81
2021/11/07 14:54:16;;;;;;;9.10;5.23;;;11.60;47.60;;;;;;5050540;28;20044;-80
2021/11/07 15:05:05;;;;;;;5.07;2.45;;;11.40;49.40;;;;;;5052415;28;20136;-80
2021/11/07 15:07:41;;;;;;;5.57;3.17;;;11.40;49.60;;;;;;5050746;28;20577;-81
2021/11/07 15:12:49;;;;;;;10.53;3.77;;;11.30;50.10;;;;;;5047756;28;20048;-81
2021/11/07 15:18:07;;;;;;;7.17;3.70;;;11.30;50.70;;;;;;5052012;28;20074;-80
2021/11/07 15:20:37;;;;;;;22.03;10.27;;;11.20;50.30;;;;;;5049347;28;20033;-81
2021/11/07 15:23:03;;;;;;;13.87;7.90;;;11.10;50.50;;;;;;5051590;28;20066;-80
2021/11/07 15:25:33;;;;;;;14.90;7.20;;;11.10;50.60;;;;;;5034014;28;20036;-81
2021/11/07 15:28:12;;;;;;;12.87;7.60;;;11.00;50.60;;;;;;5032135;28;20044;-81
2021/11/07 15:30:40;;;;;;;9.20;4.53;;;11.00;50.80;;;;;;5049067;28;20388;-81
2021/11/07 15:33:15;;;;;;;10.83;6.40;;;10.90;50.90;;;;;;5048709;28;20507;-81
2021/11/07 15:35:49;;;;;;;13.60;6.00;;;10.80;51.20;;;;;;5057409;28;20033;-81
2021/11/07 15:38:18;;;;;;;7.90;4.30;;;10.50;51.30;;;;;;5046294;28;20360;-81
2021/11/07 15:40:45;;;;;;;7.53;3.47;;;10.40;51.40;;;;;;5031945;28;20472;-81
2021/11/07 15:43:21;;;;;;;7.20;3.73;;;10.30;51.60;;;;;;5033370;28;20037;-81
2021/11/07 15:46:07;;;;;;;9.97;4.90;;;10.30;51.80;;;;;;5048900;28;20044;-81
2021/11/07 15:48:40;;;;;;;8.97;6.20;;;10.20;51.70;;;;;;5052577;28;20458;-81
2021/11/07 15:53:59;;;;;;;11.43;7.63;;;10.20;51.90;;;;;;5050880;28;20108;-81
2021/11/07 16:11:46;;;;;;;9.73;5.40;;;9.50;53.10;;;;;;5043568;28;20120;-81
2021/11/07 16:14:22;;;;;;;10.00;6.67;;;9.50;53.40;;;;;;5045351;28;20100;-82
2021/11/07 16:17:00;;;;;;;31.10;17.67;;;9.40;53.50;;;;;;5032683;28;20550;-82
2021/11/07 16:19:29;;;;;;;21.50;14.07;;;9.40;53.60;;;;;;5026601;28;20033;-82
2021/11/07 16:21:55;;;;;;;15.50;11.30;;;9.50;53.70;;;;;;5029375;28;20021;-81
2021/11/07 16:24:25;;;;;;;11.73;8.93;;;9.40;53.70;;;;;;5054778;28;20509;-80